Time;durP1;ratioP1;P1;durP2;ratioP2;P2;SDS_P1;SDS_P2;PMS_P1;PMS_P2;Temp;Humidity;BMP_temperature;BMP_pressure;BME280_temperature;BME280_humidity;BME280_pressure;Samples;Min_cycle;Max_cycle;Signal;HPM_P1;HPM_P2
2022/03/09 00:01:14;;;;;;;;;;;;;;;0.80;57.81;102173.41;5063846;28;19917;-77
2022/03/09 00:03:40;;;;;;;;;;;;;;;0.78;58.34;102174.91;5062966;28;20026;-76
2022/03/09 00:06:05;;;;;;;;;;;;;;;0.74;58.96;102177.94;5067149;28;19924;-78
2022/03/09 00:08:30;;;;;;;;;;;;;;;0.67;58.20;102186.63;5066089;28;20418;-78
2022/03/09 00:10:55;;;;;;;;;;;;;;;0.61;59.21;102186.09;5069080;28;19924;-78
2022/03/09 00:13:21;;;;;;;;;;;;;;;0.62;58.25;102195.47;5065271;28;19920;-79
2022/03/09 00:15:46;;;;;;;;;;;;;;;0.57;58.97;102189.09;5062342;28;19928;-79
2022/03/09 00:18:11;;;;;;;;;;;;;;;0.54;58.81;102189.69;5067601;28;19924;-77
2022/03/09 00:20:36;;;;;;;;;;;;;;;0.53;59.34;102187.91;5067928;28;20026;-73
2022/03/09 00:23:02;;;;;;;;;;;;;;;0.54;59.70;102189.69;5067173;28;19921;-76
2022/03/09 00:25:27;;;;;;;;;;;;;;;0.52;60.02;102183.59;5049393;28;19925;-78
2022/03/09 00:27:52;;;;;;;;;;;;;;;0.56;58.25;102197.44;5066584;28;19928;-78
2022/03/09 00:30:18;;;;;;;;;;;;;;;0.55;58.22;102190.59;5064999;28;19920;-79
2022/03/09 00:32:43;;;;;;;;;;;;;;;0.53;58.99;102194.63;5066569;28;19939;-78
2022/03/09 00:35:09;;;;;;;;;;;;;;;0.50;59.19;102187.66;5066701;28;19932;-74
2022/03/09 00:37:34;;;;;;;;;;;;;;;0.56;59.36;102197.44;5066343;28;19927;-76
2022/03/09 00:40:00;;;;;;;;;;;;;;;0.58;58.59;102192.50;5066642;28;19974;-78
2022/03/09 00:42:25;;;;;;;;;;;;;;;0.57;58.73;102190.72;5065271;28;19974;-78
2022/03/09 00:44:50;;;;;;;;;;;;;;;0.54;58.96;102189.69;5063815;28;19920;-78
2022/03/09 00:47:15;;;;;;;;;;;;;;;0.52;59.11;102186.13;5066671;28;19920;-78
2022/03/09 00:49:41;;;;;;;;;;;;;;;0.50;58.50;102177.53;5065925;28;19920;-78
2022/03/09 00:52:06;;;;;;;;;;;;;;;0.48;58.85;102181.53;5077069;28;19949;-84
2022/03/09 00:54:31;;;;;;;;;;;;;;;0.43;58.91;102187.88;5080579;28;19963;-81
2022/03/09 00:56:56;;;;;;;;;;;;;;;0.38;58.78;102181.50;5080963;28;19925;-84
2022/03/09 00:59:22;;;;;;;;;;;;;;;0.40;58.52;102184.16;5081003;28;19999;-86
2022/03/09 01:01:47;;;;;;;;;;;;;;;0.40;58.81;102190.09;5080930;28;19921;-85
2022/03/09 01:04:12;;;;;;;;;;;;;;;0.33;58.67;102187.78;5081313;28;20015;-80
2022/03/09 01:06:37;;;;;;;;;;;;;;;0.27;59.66;102184.69;5083698;28;19912;-80
2022/03/09 01:09:03;;;;;;;;;;;;;;;0.29;58.74;102193.31;5083055;28;19928;-78
2022/03/09 01:11:28;;;;;;;;;;;;;;;0.23;59.66;102195.28;5085104;28;19974;-84
2022/03/09 01:13:53;;;;;;;;;;;;;;;0.26;59.28;102190.50;5084070;28;19950;-86
2022/03/09 01:16:19;;;;;;;;;;;;;;;0.26;59.51;102191.41;5080619;28;19925;-79
2022/03/09 01:18:44;;;;;;;;;;;;;;;0.25;59.98;102191.28;5083859;28;19980;-73
2022/03/09 01:21:09;;;;;;;;;;;;;;;0.25;59.62;102186.22;5083236;28;19920;-86
2022/03/09 01:23:35;;;;;;;;;;;;;;;0.18;59.42;102187.31;5086481;28;19924;-83
2022/03/09 01:26:00;;;;;;;;;;;;;;;0.12;60.03;102180.78;5082286;28;19920;-75
2022/03/09 01:28:25;;;;;;;;;;;;;;;0.12;60.09;102188.34;5100333;28;19920;-79
2022/03/09 01:30:50;;;;;;;;;;;;;;;0.10;60.10;102183.16;5084613;28;19928;-77
2022/03/09 01:33:16;;;;;;;;;;;;;;;0.13;59.51;102190.16;5067986;28;19928;-75
2022/03/09 01:35:41;;;;;;;;;;;;;;;0.06;60.16;102185.28;5065025;28;20031;-75
2022/03/09 01:38:06;;;;;;;;;;;;;;;0.01;60.72;102184.00;5064142;28;19920;-74
2022/03/09 01:40:32;;;;;;;;;;;;;;;0.04;60.33;102181.72;5067380;28;19928;-75
2022/03/09 01:42:57;;;;;;;;;;;;;;;0.03;60.12;102179.94;5066320;28;19968;-75
2022/03/09 01:45:23;;;;;;;;;;;;;;;-0.02;60.88;102179.53;5065199;28;19924;-75
2022/03/09 01:47:48;;;;;;;;;;;;;;;-0.04;60.72;102178.50;5067091;28;19920;-75
2022/03/09 01:50:14;;;;;;;;;;;;;;;-0.09;60.41;102178.06;5064763;28;19925;-75
2022/03/09 01:52:40;;;;;;;;;;;;;;;-0.11;60.69;102181.22;5050104;28;19924;-75
2022/03/09 01:55:06;;;;;;;;;;;;;;;-0.09;61.20;102177.19;5064276;28;20384;-75
2022/03/09 01:57:31;;;;;;;;;;;;;;;-0.07;60.98;102175.69;5068500;28;19931;-75
2022/03/09 01:59:57;;;;;;;;;;;;;;;-0.07;61.24;102168.97;5066788;28;19920;-75
2022/03/09 02:02:23;;;;;;;;;;;;;;;-0.05;61.00;102170.03;5066019;28;19916;-75
2022/03/09 02:04:48;;;;;;;;;;;;;;;-0.04;60.67;102169.28;5066473;28;19920;-75
2022/03/09 02:07:14;;;;;;;;;;;;;;;-0.09;61.47;102162.03;5065182;28;19939;-75
2022/03/09 02:09:44;;;;;;;;;;;;;;;-0.08;60.71;102163.78;5067774;28;19999;-75
2022/03/09 02:12:13;;;;;;;;;;;;;;;-0.12;60.35;102170.22;5066440;28;19927;-75
2022/03/09 02:14:40;;;;;;;;;;;;;;;-0.18;60.73;102177.25;5065414;28;19920;-75
2022/03/09 02:17:10;;;;;;;;;;;;;;;-0.25;61.81;102177.41;5065219;28;19925;-76
2022/03/09 02:19:35;;;;;;;;;;;;;;;-0.28;61.08;102177.16;5067186;28;19920;-76
2022/03/09 02:22:10;;;;;;;;;;;;;;;-0.36;60.69;102178.09;5065412;28;19917;-76
2022/03/09 02:24:35;;;;;;;;;;;;;;;-0.40;61.88;102183.59;5067490;28;19963;-76
2022/03/09 02:27:01;;;;;;;;;;;;;;;-0.39;62.47;102175.25;5065848;28;19924;-77
2022/03/09 02:29:26;;;;;;;;;;;;;;;-0.37;62.09;102173.75;5066420;28;19921;-76
2022/03/09 02:31:51;;;;;;;;;;;;;;;-0.40;62.20;102171.84;5047389;28;19924;-76
2022/03/09 02:34:17;;;;;;;;;;;;;;;-0.47;62.27;102179.63;5063634;28;19935;-77
2022/03/09 02:36:42;;;;;;;;;;;;;;;-0.54;62.95;102174.75;5066192;28;20410;-76
2022/03/09 02:39:07;;;;;;;;;;;;;;;-0.55;63.34;102160.31;5066914;28;20336;-76
2022/03/09 02:41:33;;;;;;;;;;;;;;;-0.52;63.57;102155.53;5064977;28;20365;-77
2022/03/09 02:44:02;;;;;;;;;;;;;;;-0.52;63.05;102153.03;5063739;28;19920;-74
2022/03/09 02:46:27;;;;;;;;;;;;;;;-0.64;62.83;102151.88;5064674;28;19917;-74
2022/03/09 02:48:53;;;;;;;;;;;;;;;-0.75;62.51;102157.56;5062578;28;19928;-76
2022/03/09 02:51:18;;;;;;;;;;;;;;;-0.87;63.48;102152.25;5066226;28;19935;-75
2022/03/09 02:53:43;;;;;;;;;;;;;;;-0.91;64.10;102155.22;5064435;28;20285;-75
2022/03/09 02:56:09;;;;;;;;;;;;;;;-0.88;64.82;102150.47;5063926;28;20377;-74
2022/03/09 02:58:34;;;;;;;;;;;;;;;-0.82;64.25;102144.34;5065458;28;19974;-75
2022/03/09 03:00:59;;;;;;;;;;;;;;;-0.79;64.51;102156.38;5067352;28;19931;-75
2022/03/09 03:03:24;;;;;;;;;;;;;;;-0.76;63.54;102158.31;5057562;28;20596;-75
2022/03/09 03:05:50;;;;;;;;;;;;;;;-0.78;63.73;102155.66;5062608;28;19927;-77
2022/03/09 03:08:15;;;;;;;;;;;;;;;-0.81;64.26;102151.19;5062797;28;19921;-75
2022/03/09 03:10:41;;;;;;;;;;;;;;;-0.82;63.88;102161.16;5063861;28;19932;-76
2022/03/09 03:13:06;;;;;;;;;;;;;;;-0.89;63.34;102163.84;5062664;28;19997;-75
2022/03/09 03:15:31;;;;;;;;;;;;;;;-0.95;64.22;102158.22;5062223;28;19978;-75
2022/03/09 03:17:57;;;;;;;;;;;;;;;-1.02;64.14;102156.75;5063823;28;19920;-74
2022/03/09 03:20:22;;;;;;;;;;;;;;;-1.08;64.37;102158.69;5044120;28;19924;-75
2022/03/09 03:22:47;;;;;;;;;;;;;;;-1.10;64.38;102161.06;5063091;28;19933;-75
2022/03/09 03:25:12;;;;;;;;;;;;;;;-1.12;65.06;102164.19;5061033;28;20428;-75
2022/03/09 03:27:38;;;;;;;;;;;;;;;-1.05;64.76;102170.72;5041171;28;20041;-76
2022/03/09 03:30:03;;;;;;;;;;;;;;;-1.12;64.57;102157.50;5061240;28;19933;-75
2022/03/09 03:32:28;;;;;;;;;;;;;;;-1.23;64.79;102165.69;5062663;28;19928;-76
2022/03/09 03:34:53;;;;;;;;;;;;;;;-1.29;65.32;102160.03;5063526;28;20673;-76
2022/03/09 03:37:19;;;;;;;;;;;;;;;-1.30;65.38;102157.38;5060871;28;19934;-76
2022/03/09 03:39:44;;;;;;;;;;;;;;;-1.29;65.08;102164.19;5068494;28;20033;-76
2022/03/09 03:42:10;;;;;;;;;;;;;;;-1.31;66.03;102156.50;5066435;28;19986;-76
2022/03/09 03:44:36;;;;;;;;;;;;;;;-1.32;65.23;102154.72;5066115;28;19924;-76
2022/03/09 03:47:02;;;;;;;;;;;;;;;-1.39;65.68;102153.25;5068244;28;19928;-76
2022/03/09 03:49:27;;;;;;;;;;;;;;;-1.36;66.35;102150.13;5061734;28;19925;-76
2022/03/09 03:51:52;;;;;;;;;;;;;;;-1.23;65.80;102153.06;5068448;28;20010;-77
2022/03/09 03:54:17;;;;;;;;;;;;;;;-1.18;64.88;102154.41;5066801;28;19921;-76
2022/03/09 03:56:43;;;;;;;;;;;;;;;-1.23;64.71;102158.09;5066810;28;19939;-75
2022/03/09 03:59:08;;;;;;;;;;;;;;;-1.36;65.48;102155.16;5067130;28;20304;-75
2022/03/09 04:01:33;;;;;;;;;;;;;;;-1.40;66.42;102158.13;5067873;28;19998;-75
2022/03/09 04:03:59;;;;;;;;;;;;;;;-1.42;65.98;102149.53;5069296;28;19920;-76
2022/03/09 04:06:24;;;;;;;;;;;;;;;-1.49;64.70;102157.25;5066031;28;20057;-75
2022/03/09 04:08:49;;;;;;;;;;;;;;;-1.60;66.03;102156.19;5063339;28;21179;-75
2022/03/09 04:11:14;;;;;;;;;;;;;;;-1.68;66.34;102158.00;5056077;28;19928;-74
2022/03/09 04:13:42;;;;;;;;;;;;;;;-1.73;67.16;102160.81;5065139;28;19928;-75
2022/03/09 04:16:07;;;;;;;;;;;;;;;-1.78;67.65;102160.34;5066181;28;19924;-75
2022/03/09 04:18:33;;;;;;;;;;;;;;;-1.75;65.59;102164.81;5064996;28;19985;-75
2022/03/09 04:20:58;;;;;;;;;;;;;;;-1.77;66.81;102163.75;5066176;28;19948;-76
2022/03/09 04:23:24;;;;;;;;;;;;;;;-1.80;66.98;102164.34;5065384;28;19968;-75
2022/03/09 04:25:49;;;;;;;;;;;;;;;-1.80;67.88;102159.31;5065658;28;19920;-76
2022/03/09 04:28:14;;;;;;;;;;;;;;;-1.75;67.21;102160.66;5066461;28;19932;-76
2022/03/09 04:30:39;;;;;;;;;;;;;;;-1.75;67.45;102159.78;5065981;28;19928;-76
2022/03/09 04:33:06;;;;;;;;;;;;;;;-1.76;67.85;102155.44;5065935;28;19921;-75
2022/03/09 04:35:31;;;;;;;;;;;;;;;-1.68;67.12;102159.63;5063182;28;19928;-76
2022/03/09 04:37:56;;;;;;;;;;;;;;;-1.65;67.10;102153.22;5065806;28;19920;-75
2022/03/09 04:40:21;;;;;;;;;;;;;;;-1.66;66.94;102146.41;5063287;28;20025;-75
2022/03/09 04:42:47;;;;;;;;;;;;;;;-1.67;67.11;102146.25;5082033;28;19928;-76
2022/03/09 04:45:12;;;;;;;;;;;;;;;-1.65;66.62;102147.28;5061204;28;19921;-75
2022/03/09 04:47:37;;;;;;;;;;;;;;;-1.67;65.76;102152.19;5064261;28;20400;-76
2022/03/09 04:50:03;;;;;;;;;;;;;;;-1.73;66.56;102156.66;5063671;28;19929;-76
2022/03/09 04:52:28;;;;;;;;;;;;;;;-1.76;66.70;102166.44;5064115;28;19944;-76
2022/03/09 04:54:53;;;;;;;;;;;;;;;-1.75;67.60;102155.63;5065704;28;19995;-76
2022/03/09 04:57:19;;;;;;;;;;;;;;;-1.70;67.43;102148.47;5065229;28;20013;-76
2022/03/09 04:59:44;;;;;;;;;;;;;;;-1.68;66.89;102150.41;5066625;28;20443;-76
2022/03/09 05:02:09;;;;;;;;;;;;;;;-1.71;67.52;102147.59;5064885;28;19928;-76
2022/03/09 05:04:35;;;;;;;;;;;;;;;-1.65;66.48;102148.19;5065996;28;20304;-76
2022/03/09 05:07:01;;;;;;;;;;;;;;;-1.66;66.95;102146.41;5065912;28;19998;-74
2022/03/09 05:09:26;;;;;;;;;;;;;;;-1.65;67.11;102145.66;5062759;28;19959;-74
2022/03/09 05:11:51;;;;;;;;;;;;;;;-1.64;67.24;102154.13;5065578;28;19924;-75
2022/03/09 05:14:17;;;;;;;;;;;;;;;-1.68;67.10;102147.00;5065856;28;20696;-76
2022/03/09 05:16:42;;;;;;;;;;;;;;;-1.65;66.86;102150.72;5063633;28;19933;-76
2022/03/09 05:19:07;;;;;;;;;;;;;;;-1.60;67.10;102145.22;5059098;28;20011;-75
2022/03/09 05:21:32;;;;;;;;;;;;;;;-1.59;67.19;102150.41;5063314;28;20316;-75
2022/03/09 05:23:58;;;;;;;;;;;;;;;-1.61;66.82;102149.38;5064877;28;19924;-75
2022/03/09 05:26:23;;;;;;;;;;;;;;;-1.65;66.32;102149.81;5063723;28;20512;-76
2022/03/09 05:28:48;;;;;;;;;;;;;;;-1.73;66.31;102159.16;5072658;28;19943;-79
2022/03/09 05:31:13;;;;;;;;;;;;;;;-1.82;67.77;102148.19;5085662;28;19925;-80
2022/03/09 05:33:39;;;;;;;;;;;;;;;-1.80;67.31;102155.91;5072435;28;19975;-81
2022/03/09 05:36:04;;;;;;;;;;;;;;;-1.85;67.30;102157.97;5072897;28;19935;-77
2022/03/09 05:38:29;;;;;;;;;;;;;;;-1.91;66.75;102164.94;5076713;28;19963;-80
2022/03/09 05:40:55;;;;;;;;;;;;;;;-1.97;67.62;102161.81;5073312;28;19981;-81
2022/03/09 05:43:20;;;;;;;;;;;;;;;-2.02;67.19;102168.91;5072051;28;19928;-84
2022/03/09 05:45:45;;;;;;;;;;;;;;;-2.02;68.63;102178.09;5066178;28;19921;-80
2022/03/09 05:48:11;;;;;;;;;;;;;;;-2.04;67.09;102174.56;5070585;28;19931;-79
2022/03/09 05:50:36;;;;;;;;;;;;;;;-2.06;68.04;102168.44;5068288;28;19964;-83
2022/03/09 05:53:02;;;;;;;;;;;;;;;-2.03;67.45;102176.31;5063987;28;19924;-85
2022/03/09 05:55:27;;;;;;;;;;;;;;;-2.00;68.95;102181.66;5067061;28;20419;-81
2022/03/09 05:57:52;;;;;;;;;;;;;;;-1.93;68.64;102184.06;5070267;28;20428;-81
2022/03/09 06:00:17;;;;;;;;;;;;;;;-1.94;68.83;102184.81;5045928;28;19920;-74
2022/03/09 06:02:43;;;;;;;;;;;;;;;-1.86;67.96;102188.09;5062971;28;20183;-79
2022/03/09 06:05:09;;;;;;;;;;;;;;;-1.90;67.82;102192.81;5066639;28;20350;-74
2022/03/09 06:07:34;;;;;;;;;;;;;;;-1.99;68.87;102191.03;5077211;28;21201;-78
2022/03/09 06:09:59;;;;;;;;;;;;;;;-1.96;68.75;102192.19;5069251;28;19924;-79
2022/03/09 06:12:25;;;;;;;;;;;;;;;-1.91;67.77;102201.13;5071908;28;20019;-79
2022/03/09 06:14:50;;;;;;;;;;;;;;;-1.92;67.95;102194.28;5069215;28;19946;-84
2022/03/09 06:17:16;;;;;;;;;;;;;;;-1.91;68.63;102203.63;5066635;28;19932;-79
2022/03/09 06:19:41;;;;;;;;;;;;;;;-1.89;68.79;102211.34;5066757;28;19928;-79
2022/03/09 06:22:06;;;;;;;;;;;;;;;-1.84;68.20;102206.75;5069477;28;20288;-80
2022/03/09 06:24:31;;;;;;;;;;;;;;;-1.83;68.56;102199.34;5068988;28;19959;-77
2022/03/09 06:26:57;;;;;;;;;;;;;;;-1.81;67.83;102202.94;5068963;28;19920;-79
2022/03/09 06:29:22;;;;;;;;;;;;;;;-1.79;68.63;102206.47;5073321;28;19937;-76
2022/03/09 06:31:47;;;;;;;;;;;;;;;-1.73;67.87;102211.22;5076120;28;19987;-81
2022/03/09 06:34:13;;;;;;;;;;;;;;;-1.75;68.14;102216.13;5071343;28;19921;-80
2022/03/09 06:36:43;;;;;;;;;;;;;;;-1.76;68.90;102221.00;5070875;28;19933;-75
2022/03/09 06:39:08;;;;;;;;;;;;;;;-1.56;69.17;102220.47;5073851;28;19947;-80
2022/03/09 06:41:33;;;;;;;;;;;;;;;-0.92;69.66;102216.56;5073126;28;19924;-79
2022/03/09 06:43:59;;;;;;;;;;;;;;;0.09;66.23;102214.28;5065774;28;19920;-79
2022/03/09 06:46:24;;;;;;;;;;;;;;;1.10;64.46;102218.25;5067361;28;19983;-78
2022/03/09 06:48:49;;;;;;;;;;;;;;;1.94;61.18;102225.47;5066699;28;19939;-79
2022/03/09 06:51:14;;;;;;;;;;;;;;;2.74;56.46;102227.00;5067635;28;19920;-79
2022/03/09 06:53:40;;;;;;;;;;;;;;;3.48;56.08;102229.56;5060252;28;20497;-80
2022/03/09 06:56:05;;;;;;;;;;;;;;;4.23;53.57;102232.75;5069144;28;20454;-79
2022/03/09 06:58:30;;;;;;;;;;;;;;;4.82;54.40;102233.75;5063097;28;21594;-80
2022/03/09 07:00:57;;;;;;;;;;;;;;;5.40;50.88;102230.31;5059344;28;19958;-78
2022/03/09 07:03:22;;;;;;;;;;;;;;;5.93;51.53;102227.16;5062299;28;19916;-77
2022/03/09 07:05:48;;;;;;;;;;;;;;;6.30;47.88;102223.75;5062293;28;19931;-77
2022/03/09 07:08:14;;;;;;;;;;;;;;;6.67;50.14;102229.66;5063842;28;19928;-82
2022/03/09 07:10:39;;;;;;;;;;;;;;;7.38;43.53;102229.91;5064794;28;20750;-79
2022/03/09 07:13:05;;;;;;;;;;;;;;;7.97;45.46;102235.28;5063200;28;20005;-82
2022/03/09 07:15:30;;;;;;;;;;;;;;;8.59;40.62;102234.69;5069868;28;19920;-77
2022/03/09 07:17:55;;;;;;;;;;;;;;;8.94;41.16;102234.16;5049058;28;19990;-78
2022/03/09 07:20:20;;;;;;;;;;;;;;;9.31;41.29;102238.75;5066533;28;19933;-81
2022/03/09 07:22:46;;;;;;;;;;;;;;;9.82;40.25;102234.66;5067876;28;20593;-83
2022/03/09 07:25:12;;;;;;;;;;;;;;;10.23;41.43;102230.78;5070350;28;20010;-86
2022/03/09 07:27:38;;;;;;;;;;;;;;;10.84;37.95;102229.63;5067056;28;19917;-81
2022/03/09 07:30:04;;;;;;;;;;;;;;;11.30;38.59;102226.69;5070301;28;19924;-81
2022/03/09 07:32:29;;;;;;;;;;;;;;;11.78;37.74;102229.72;5068415;28;19964;-84
2022/03/09 07:34:54;;;;;;;;;;;;;;;11.69;34.32;102222.44;5073867;28;19928;-80
2022/03/09 07:37:20;;;;;;;;;;;;;;;11.92;33.84;102223.53;5069521;28;19924;-83
2022/03/09 07:39:45;;;;;;;;;;;;;;;12.17;35.47;102222.00;5067941;28;20385;-84
2022/03/09 07:42:10;;;;;;;;;;;;;;;12.96;30.82;102219.28;5066392;28;19993;-82
2022/03/09 07:44:36;;;;;;;;;;;;;;;13.19;33.17;102215.03;5071394;28;19931;-81
2022/03/09 07:47:01;;;;;;;;;;;;;;;13.59;32.73;102212.25;5052874;28;19975;-79
2022/03/09 07:49:26;;;;;;;;;;;;;;;14.11;33.20;102225.38;5068913;28;20346;-84
2022/03/09 07:51:52;;;;;;;;;;;;;;;14.58;30.06;102215.81;5069733;28;19975;-81
2022/03/09 07:54:17;;;;;;;;;;;;;;;14.83;28.77;102222.66;5066209;28;19928;-80
2022/03/09 07:56:43;;;;;;;;;;;;;;;14.81;27.83;102220.88;5068215;28;19925;-82
2022/03/09 07:59:10;;;;;;;;;;;;;;;14.74;27.25;102217.16;5068820;28;20007;-76
2022/03/09 08:01:36;;;;;;;;;;;;;;;14.41;27.81;102220.38;5070413;28;19948;-82
2022/03/09 08:04:03;;;;;;;;;;;;;;;14.39;28.96;102223.75;5067675;28;19924;-80
2022/03/09 08:06:28;;;;;;;;;;;;;;;14.78;27.76;102219.03;5070322;28;19920;-80
2022/03/09 08:08:53;;;;;;;;;;;;;;;14.89;27.31;102220.28;5071022;28;20038;-82
2022/03/09 08:11:18;;;;;;;;;;;;;;;14.83;27.77;102224.38;5051834;28;19921;-83
2022/03/09 08:13:44;;;;;;;;;;;;;;;15.19;26.80;102232.44;5070432;28;19978;-82
2022/03/09 08:16:09;;;;;;;;;;;;;;;15.38;26.50;102237.34;5058330;28;19932;-75
2022/03/09 08:18:34;;;;;;;;;;;;;;;15.37;29.40;102235.59;5045727;28;19940;-80
2022/03/09 08:21:00;;;;;;;;;;;;;;;15.70;29.25;102232.25;5074951;28;19928;-82
2022/03/09 08:23:25;;;;;;;;;;;;;;;16.00;27.40;102238.28;5066870;28;19962;-76
2022/03/09 08:25:51;;;;;;;;;;;;;;;16.33;26.74;102242.66;5069544;28;19927;-82
2022/03/09 08:28:16;;;;;;;;;;;;;;;16.64;27.84;102233.94;5067039;28;19951;-84
2022/03/09 08:30:41;;;;;;;;;;;;;;;16.81;24.80;102245.66;5062272;28;19924;-80
2022/03/09 08:33:07;;;;;;;;;;;;;;;16.04;25.51;102239.28;5063866;28;19928;-82
2022/03/09 08:35:32;;;;;;;;;;;;;;;15.54;27.18;102243.88;5061945;28;19982;-77
2022/03/09 08:37:58;;;;;;;;;;;;;;;15.77;27.28;102245.47;5066321;28;19920;-79
2022/03/09 08:40:23;;;;;;;;;;;;;;;16.12;26.55;102249.84;5063842;28;19924;-78
2022/03/09 08:42:48;;;;;;;;;;;;;;;16.54;27.55;102243.19;5064330;28;19927;-80
2022/03/09 08:45:14;;;;;;;;;;;;;;;17.02;25.18;102240.09;5070497;28;19950;-80
2022/03/09 08:47:39;;;;;;;;;;;;;;;17.59;25.23;102251.72;5066049;28;19916;-80
2022/03/09 08:50:05;;;;;;;;;;;;;;;18.22;23.81;102239.19;5067057;28;19929;-79
2022/03/09 08:52:30;;;;;;;;;;;;;;;18.30;24.57;102247.13;5068924;28;19932;-75
2022/03/09 08:54:55;;;;;;;;;;;;;;;18.97;24.39;102248.28;5064856;28;19924;-78
2022/03/09 08:57:21;;;;;;;;;;;;;;;19.27;23.85;102245.25;5059893;28;19972;-77
2022/03/09 08:59:46;;;;;;;;;;;;;;;19.27;24.98;102241.78;5059221;28;19921;-78
2022/03/09 09:02:12;;;;;;;;;;;;;;;19.53;23.87;102247.34;5059359;28;19982;-78
2022/03/09 09:04:37;;;;;;;;;;;;;;;19.73;25.20;102239.81;5057984;28;20506;-79
2022/03/09 09:07:02;;;;;;;;;;;;;;;20.46;24.73;102239.75;5061075;28;19951;-79
2022/03/09 09:09:28;;;;;;;;;;;;;;;20.62;20.77;102239.00;5064537;28;19928;-78
2022/03/09 09:11:54;;;;;;;;;;;;;;;19.96;22.90;102235.75;5066917;28;19921;-78
2022/03/09 09:14:19;;;;;;;;;;;;;;;19.71;21.92;102233.69;5065021;28;19929;-78
2022/03/09 09:16:44;;;;;;;;;;;;;;;19.68;24.13;102231.06;5066479;28;19943;-80
2022/03/09 09:19:10;;;;;;;;;;;;;;;19.98;21.34;102234.00;5068609;28;19931;-79
2022/03/09 09:21:38;;;;;;;;;;;;;;;20.08;21.78;102235.88;5070382;28;21580;-81
2022/03/09 09:24:04;;;;;;;;;;;;;;;20.73;23.19;102234.75;5065250;28;20008;-77
2022/03/09 09:26:29;;;;;;;;;;;;;;;21.30;21.38;102233.44;5061469;28;20082;-76
2022/03/09 09:28:55;;;;;;;;;;;;;;;20.92;20.35;102229.66;5069329;28;19993;-79
2022/03/09 09:31:20;;;;;;;;;;;;;;;20.24;20.11;102236.00;5068212;28;20019;-77
2022/03/09 09:33:46;;;;;;;;;;;;;;;20.31;20.50;102228.25;5067051;28;19921;-78
2022/03/09 09:36:11;;;;;;;;;;;;;;;21.34;21.44;102226.47;5066751;28;20023;-78
2022/03/09 09:38:36;;;;;;;;;;;;;;;22.36;21.04;102223.31;5065954;28;19920;-77
2022/03/09 09:41:01;;;;;;;;;;;;;;;23.14;18.41;102228.53;5048673;28;19921;-77
2022/03/09 09:43:27;;;;;;;;;;;;;;;22.46;19.27;102227.69;5059397;28;20376;-78
2022/03/09 09:45:52;;;;;;;;;;;;;;;22.01;20.12;102223.22;5061738;28;19928;-78
2022/03/09 09:48:19;;;;;;;;;;;;;;;22.65;20.00;102225.94;5061836;28;20277;-79
2022/03/09 09:50:45;;;;;;;;;;;;;;;23.22;19.57;102224.13;5063498;28;20463;-76
2022/03/09 09:53:12;;;;;;;;;;;;;;;23.14;18.00;102223.28;5058796;28;19978;-74
2022/03/09 09:55:38;;;;;;;;;;;;;;;23.58;17.88;102230.13;5066492;28;21126;-79
2022/03/09 09:58:03;;;;;;;;;;;;;;;23.53;18.48;102223.13;5060124;28;19931;-77
2022/03/09 10:00:31;;;;;;;;;;;;;;;23.91;17.39;102227.38;5063669;28;19924;-78
2022/03/09 10:02:56;;;;;;;;;;;;;;;23.63;19.23;102220.53;5064509;28;20022;-80
2022/03/09 10:05:21;;;;;;;;;;;;;;;24.33;18.73;102228.00;5064290;28;19971;-79
2022/03/09 10:08:05;;;;;;;;;;;;;;;24.51;16.76;102234.88;5065285;28;19923;-80
2022/03/09 10:10:30;;;;;;;;;;;;;;;24.25;19.44;102240.31;5065878;28;20429;-79
2022/03/09 10:13:09;;;;;;;;;;;;;;;25.16;18.30;102228.16;5063624;28;19916;-78
2022/03/09 10:15:34;;;;;;;;;;;;;;;25.89;18.11;102231.66;5084075;28;19936;-79
2022/03/09 10:18:11;;;;;;;;;;;;;;;26.16;16.10;102225.13;5061718;28;19932;-78
2022/03/09 10:20:37;;;;;;;;;;;;;;;25.32;17.41;102219.19;5062708;28;19916;-79
2022/03/09 10:23:02;;;;;;;;;;;;;;;24.56;16.89;102219.94;5044845;28;19928;-77
2022/03/09 10:25:27;;;;;;;;;;;;;;;24.33;16.80;102214.84;5048007;28;19970;-78
2022/03/09 10:27:54;;;;;;;;;;;;;;;23.88;17.09;102219.50;5062574;28;20328;-75
2022/03/09 10:30:30;;;;;;;;;;;;;;;23.87;18.58;102219.53;5079508;28;20281;-78
2022/03/09 10:32:57;;;;;;;;;;;;;;;24.06;17.62;102208.00;5062133;28;19961;-76
2022/03/09 10:35:31;;;;;;;;;;;;;;;24.17;17.69;102205.31;5058068;28;20308;-77
2022/03/09 10:37:58;;;;;;;;;;;;;;;24.05;17.54;102214.16;5062954;28;19920;-75
2022/03/09 10:40:23;;;;;;;;;;;;;;;23.28;18.56;102203.13;5065058;28;19930;-78
2022/03/09 10:42:49;;;;;;;;;;;;;;;23.14;18.57;102211.03;5075373;28;19924;-78
2022/03/09 10:45:17;;;;;;;;;;;;;;;23.99;18.97;102206.31;5043021;28;19925;-78
2022/03/09 10:47:46;;;;;;;;;;;;;;;24.08;18.11;102215.00;5067887;28;19920;-76
2022/03/09 10:50:11;;;;;;;;;;;;;;;24.65;17.82;102205.84;5066603;28;20025;-79
2022/03/09 10:52:50;;;;;;;;;;;;;;;23.99;17.94;102214.19;5067083;28;19999;-77
2022/03/09 10:55:19;;;;;;;;;;;;;;;23.26;19.81;102207.50;5064689;28;20393;-77
2022/03/09 10:57:44;;;;;;;;;;;;;;;23.61;19.11;102214.38;5063999;28;20427;-76
2022/03/09 11:00:10;;;;;;;;;;;;;;;23.09;18.25;102207.56;5066314;28;19924;-78
2022/03/09 11:02:47;;;;;;;;;;;;;;;22.98;19.46;102202.31;5063013;28;19927;-78
2022/03/09 11:05:13;;;;;;;;;;;;;;;22.99;18.33;102206.72;5063710;28;20025;-78
2022/03/09 11:07:39;;;;;;;;;;;;;;;22.39;19.26;102215.47;5063902;28;20145;-80
2022/03/09 11:10:10;;;;;;;;;;;;;;;22.21;19.75;102205.84;5064139;28;20389;-80
2022/03/09 11:12:36;;;;;;;;;;;;;;;22.19;19.69;102211.06;5062681;28;19955;-76
2022/03/09 11:15:01;;;;;;;;;;;;;;;21.70;19.92;102212.66;5060436;28;19929;-74
2022/03/09 11:17:27;;;;;;;;;;;;;;;20.98;20.99;102211.38;5065639;28;19951;-75
2022/03/09 11:19:52;;;;;;;;;;;;;;;20.31;21.52;102215.19;5063594;28;19993;-76
2022/03/09 11:22:18;;;;;;;;;;;;;;;20.70;21.28;102203.38;5048835;28;19931;-75
2022/03/09 11:24:43;;;;;;;;;;;;;;;20.82;21.43;102198.22;5060183;28;20018;-76
2022/03/09 11:27:09;;;;;;;;;;;;;;;20.65;21.58;102192.00;5060428;28;19978;-76
2022/03/09 11:29:35;;;;;;;;;;;;;;;21.32;20.76;102192.44;5069292;28;19959;-76
2022/03/09 11:32:05;;;;;;;;;;;;;;;21.49;21.44;102192.53;5065793;28;20052;-75
2022/03/09 11:34:37;;;;;;;;;;;;;;;21.86;20.00;102193.50;5065460;28;19939;-75
2022/03/09 11:37:06;;;;;;;;;;;;;;;21.81;20.94;102187.38;5062428;28;19925;-74
2022/03/09 11:39:32;;;;;;;;;;;;;;;22.90;20.28;102183.13;5051302;28;19923;-76
2022/03/09 11:42:16;;;;;;;;;;;;;;;23.98;18.85;102178.31;5064932;28;19916;-74
2022/03/09 11:44:43;;;;;;;;;;;;;;;24.30;19.07;102172.81;5065658;28;20276;-78
2022/03/09 11:47:08;;;;;;;;;;;;;;;24.98;18.46;102173.91;5067147;28;20454;-78
2022/03/09 11:49:54;;;;;;;;;;;;;;;25.54;18.10;102171.50;5063719;28;19936;-78
2022/03/09 11:52:20;;;;;;;;;;;;;;;25.32;18.04;102165.69;5052740;28;19916;-76
2022/03/09 11:54:45;;;;;;;;;;;;;;;25.34;17.68;102163.88;5064889;28;20003;-76
2022/03/09 11:57:11;;;;;;;;;;;;;;;24.92;18.18;102154.69;5064617;28;20007;-77
2022/03/09 11:59:37;;;;;;;;;;;;;;;25.21;18.29;102157.03;5064671;28;19916;-77
2022/03/09 12:02:11;;;;;;;;;;;;;;;25.49;16.70;102154.94;5066874;28;19928;-77
2022/03/09 12:04:40;;;;;;;;;;;;;;;24.49;17.44;102157.78;5066708;28;19916;-78
2022/03/09 12:07:06;;;;;;;;;;;;;;;24.21;17.43;102158.00;5063176;28;19968;-77
2022/03/09 12:09:49;;;;;;;;;;;;;;;24.08;18.03;102153.69;5062908;28;20412;-79
2022/03/09 12:12:15;;;;;;;;;;;;;;;24.41;16.79;102156.97;5063784;28;19916;-77
2022/03/09 12:15:13;;;;;;;;;;;;;;;23.51;18.11;102154.03;5063732;28;19928;-75
2022/03/09 12:17:42;;;;;;;;;;;;;;;23.48;18.69;102151.44;5019426;28;19979;-77
2022/03/09 12:20:19;;;;;;;;;;;;;;;23.58;18.46;102154.00;5069063;28;20312;-79
2022/03/09 12:22:57;;;;;;;;;;;;;;;24.17;17.18;102158.03;5073032;28;19924;-79
2022/03/09 12:25:41;;;;;;;;;;;;;;;24.05;18.02;102149.34;5069458;28;19916;-80
2022/03/09 12:28:21;;;;;;;;;;;;;;;24.83;16.55;102140.78;5072634;28;19916;-78
2022/03/09 12:30:51;;;;;;;;;;;;;;;25.17;17.53;102147.44;5068958;28;19942;-78
2022/03/09 12:33:25;;;;;;;;;;;;;;;25.48;16.81;102140.91;5050370;28;19920;-80